Aérodrome :
LOGIN :

S'inscrire | Disclaimer

   EN    FR    IT 

 










Légende :    VFR   VFR Marginal   IFR   IFR Intensif   IFR Très Intensif
Visi : 
Plafond : 
>= 8 km
>= 3000ft
5 à 8 km
1000 à 3000 ft
1500m à 5 km
500 à 1000 ft
800 à 1500m
200 à 500 ft
< 800m
< 200 ft
Symboles :   Orages  Brouillard  Fortes neiges  Fortes précipitations  Vent > 20 kt
SIGMETs :   Divers  Orages  Givrage  Turbulence  Onde Orograph.  Cendres Volcan.






- Altitude de l'aérodrome : 374 ft
- Code IATA : LIS


LPPT - Lisboa Portela

DERNIER METAR :
  • 302000Z 04014KT 9999 -RADZ SCT006 BKN012 10/09 Q1006

METARs EXPIRÉS :
  • 301930Z 03016KT 9999 -RA SCT006 BKN012 10/09 Q1006
  • 301900Z 03015KT 360V060 9999 -RA SCT009 BKN014 11/10 Q1005
  • 301830Z 04012KT 9999 -RA SCT020 BKN024 11/09 Q1005
  • 301800Z 04011KT 9999 SCT018 BKN040 12/09 Q1006
  • 301730Z 05011KT 9999 FEW010 BKN024 12/11 Q1006

TAF TAF LPPT
Valide du 30 à 18h jusqu'au 01 à 00h UTC


301700Z 3018/3124 05012KT 9999 SCT012 BKN020
TEMPO 3018/3104 5000 RA SCT004 BKN008
BECMG 3109/3111 05007KT BKN040
BECMG 3112/3114 21008KT
BECMG 3116/3118 30010KT FEW035



MET'MAP, la Météo Aéronautique d'un coup d'oeil ! - Copyright ORBIFLY Décembre 2007 - Disclaimer

ORBIFLY MET'MAP TEAM :

Programmation & Développement : Alexandra Zaïnal
Sur une idée originale de : Baudouin d'Aumeries
Assistance à la programmation : Marc-Olivier Méhu
Soutien technique & logistique : Manuel Goepfert

Contact : metmap@orbifly.com




SOURCES & CREDITS :

   NOAA